sensor_id;sensor_type;location;lat;lon;timestamp;P1;durP1;ratioP1;P2;durP2;ratioP2
58553;SDS011;48119;53.218;6.576;2023-06-14T00:01:48;8.93;;;2.13;;
58553;SDS011;48119;53.218;6.576;2023-06-14T00:04:14;9.63;;;2.20;;
58553;SDS011;48119;53.218;6.576;2023-06-14T00:06:44;5.25;;;2.20;;
58553;SDS011;48119;53.218;6.576;2023-06-14T00:09:10;4.15;;;1.50;;
58553;SDS011;48119;53.218;6.576;2023-06-14T00:11:38;2.63;;;1.75;;
58553;SDS011;48119;53.218;6.576;2023-06-14T00:14:08;8.35;;;2.75;;
58553;SDS011;48119;53.218;6.576;2023-06-14T00:16:33;6.85;;;2.28;;
58553;SDS011;48119;53.218;6.576;2023-06-14T00:19:00;6.15;;;1.77;;
58553;SDS011;48119;53.218;6.576;2023-06-14T00:21:30;3.70;;;1.60;;
58553;SDS011;48119;53.218;6.576;2023-06-14T00:23:57;5.53;;;2.05;;
58553;SDS011;48119;53.218;6.576;2023-06-14T00:26:23;3.17;;;1.80;;
58553;SDS011;48119;53.218;6.576;2023-06-14T00:28:50;4.53;;;2.20;;
58553;SDS011;48119;53.218;6.576;2023-06-14T00:31:16;7.88;;;1.90;;
58553;SDS011;48119;53.218;6.576;2023-06-14T00:33:42;7.35;;;2.10;;
58553;SDS011;48119;53.218;6.576;2023-06-14T00:36:07;5.13;;;2.33;;
58553;SDS011;48119;53.218;6.576;2023-06-14T00:38:33;3.80;;;1.70;;
58553;SDS011;48119;53.218;6.576;2023-06-14T00:40:59;4.85;;;2.03;;
58553;SDS011;48119;53.218;6.576;2023-06-14T00:43:25;6.50;;;1.92;;
58553;SDS011;48119;53.218;6.576;2023-06-14T00:45:51;3.03;;;1.35;;
58553;SDS011;48119;53.218;6.576;2023-06-14T00:48:17;5.05;;;1.90;;
58553;SDS011;48119;53.218;6.576;2023-06-14T00:50:44;2.33;;;1.42;;
58553;SDS011;48119;53.218;6.576;2023-06-14T00:53:14;2.00;;;1.38;;
58553;SDS011;48119;53.218;6.576;2023-06-14T00:55:40;3.50;;;1.30;;
58553;SDS011;48119;53.218;6.576;2023-06-14T00:58:07;4.93;;;1.45;;
58553;SDS011;48119;53.218;6.576;2023-06-14T01:00:33;3.33;;;1.75;;
58553;SDS011;48119;53.218;6.576;2023-06-14T01:02:59;4.80;;;1.40;;
58553;SDS011;48119;53.218;6.576;2023-06-14T01:05:26;3.05;;;1.60;;
58553;SDS011;48119;53.218;6.576;2023-06-14T01:15:57;2.60;;;1.42;;
58553;SDS011;48119;53.218;6.576;2023-06-14T01:18:24;3.05;;;1.60;;
58553;SDS011;48119;53.218;6.576;2023-06-14T01:20:51;3.65;;;1.67;;
58553;SDS011;48119;53.218;6.576;2023-06-14T01:23:20;3.33;;;1.33;;
58553;SDS011;48119;53.218;6.576;2023-06-14T01:25:47;3.30;;;1.80;;
58553;SDS011;48119;53.218;6.576;2023-06-14T01:28:18;3.97;;;1.80;;
58553;SDS011;48119;53.218;6.576;2023-06-14T01:30:47;2.88;;;1.50;;
58553;SDS011;48119;53.218;6.576;2023-06-14T01:33:24;5.63;;;1.75;;
58553;SDS011;48119;53.218;6.576;2023-06-14T01:35:52;5.75;;;1.33;;
58553;SDS011;48119;53.218;6.576;2023-06-14T01:38:23;1.88;;;1.20;;
58553;SDS011;48119;53.218;6.576;2023-06-14T01:40:51;3.05;;;1.63;;
58553;SDS011;48119;53.218;6.576;2023-06-14T01:43:19;2.95;;;1.77;;
58553;SDS011;48119;53.218;6.576;2023-06-14T01:45:46;3.28;;;1.70;;
58553;SDS011;48119;53.218;6.576;2023-06-14T01:48:14;5.32;;;2.00;;
58553;SDS011;48119;53.218;6.576;2023-06-14T01:50:40;3.15;;;1.80;;
58553;SDS011;48119;53.218;6.576;2023-06-14T01:53:09;5.25;;;1.92;;
58553;SDS011;48119;53.218;6.576;2023-06-14T01:55:35;3.97;;;1.60;;
58553;SDS011;48119;53.218;6.576;2023-06-14T01:58:05;2.65;;;1.75;;
58553;SDS011;48119;53.218;6.576;2023-06-14T02:00:31;4.57;;;1.75;;
58553;SDS011;48119;53.218;6.576;2023-06-14T02:02:57;4.45;;;1.95;;
58553;SDS011;48119;53.218;6.576;2023-06-14T02:05:23;3.58;;;2.00;;
58553;SDS011;48119;53.218;6.576;2023-06-14T02:07:49;6.13;;;1.88;;
58553;SDS011;48119;53.218;6.576;2023-06-14T02:10:15;5.60;;;1.92;;
58553;SDS011;48119;53.218;6.576;2023-06-14T02:12:42;3.35;;;1.58;;
58553;SDS011;48119;53.218;6.576;2023-06-14T02:15:09;5.00;;;1.85;;
58553;SDS011;48119;53.218;6.576;2023-06-14T02:17:48;4.93;;;1.98;;
58553;SDS011;48119;53.218;6.576;2023-06-14T02:20:14;4.80;;;1.88;;
58553;SDS011;48119;53.218;6.576;2023-06-14T02:22:41;3.15;;;1.60;;
58553;SDS011;48119;53.218;6.576;2023-06-14T02:25:07;4.93;;;2.20;;
58553;SDS011;48119;53.218;6.576;2023-06-14T02:27:33;4.28;;;2.15;;
58553;SDS011;48119;53.218;6.576;2023-06-14T02:30:00;5.95;;;2.13;;
58553;SDS011;48119;53.218;6.576;2023-06-14T02:32:26;7.45;;;1.90;;
58553;SDS011;48119;53.218;6.576;2023-06-14T02:34:52;4.18;;;1.88;;
58553;SDS011;48119;53.218;6.576;2023-06-14T02:37:18;4.03;;;1.52;;
58553;SDS011;48119;53.218;6.576;2023-06-14T02:39:44;5.57;;;1.95;;
58553;SDS011;48119;53.218;6.576;2023-06-14T02:42:10;4.15;;;2.38;;
58553;SDS011;48119;53.218;6.576;2023-06-14T02:44:36;4.30;;;2.08;;
58553;SDS011;48119;53.218;6.576;2023-06-14T02:47:02;4.50;;;2.00;;
58553;SDS011;48119;53.218;6.576;2023-06-14T02:49:29;3.97;;;1.80;;
58553;SDS011;48119;53.218;6.576;2023-06-14T02:51:55;3.90;;;1.80;;
58553;SDS011;48119;53.218;6.576;2023-06-14T02:54:21;5.22;;;1.80;;
58553;SDS011;48119;53.218;6.576;2023-06-14T02:56:46;3.78;;;1.90;;
58553;SDS011;48119;53.218;6.576;2023-06-14T02:59:12;3.42;;;2.10;;
58553;SDS011;48119;53.218;6.576;2023-06-14T03:01:39;5.63;;;2.45;;
58553;SDS011;48119;53.218;6.576;2023-06-14T03:04:15;3.92;;;2.00;;
58553;SDS011;48119;53.218;6.576;2023-06-14T03:06:41;6.05;;;2.33;;
58553;SDS011;48119;53.218;6.576;2023-06-14T03:09:09;3.78;;;1.98;;
58553;SDS011;48119;53.218;6.576;2023-06-14T03:11:35;3.78;;;2.35;;
58553;SDS011;48119;53.218;6.576;2023-06-14T03:14:03;6.65;;;2.60;;
58553;SDS011;48119;53.218;6.576;2023-06-14T03:16:29;3.30;;;1.63;;
58553;SDS011;48119;53.218;6.576;2023-06-14T03:18:56;8.23;;;2.60;;
58553;SDS011;48119;53.218;6.576;2023-06-14T03:21:22;4.60;;;2.90;;
58553;SDS011;48119;53.218;6.576;2023-06-14T03:23:48;7.65;;;2.95;;
58553;SDS011;48119;53.218;6.576;2023-06-14T03:26:14;7.30;;;2.67;;
58553;SDS011;48119;53.218;6.576;2023-06-14T03:28:46;7.03;;;2.58;;
58553;SDS011;48119;53.218;6.576;2023-06-14T03:31:12;3.88;;;2.00;;
58553;SDS011;48119;53.218;6.576;2023-06-14T03:33:38;3.47;;;2.13;;
58553;SDS011;48119;53.218;6.576;2023-06-14T03:36:04;5.15;;;2.20;;
58553;SDS011;48119;53.218;6.576;2023-06-14T03:38:31;3.67;;;1.90;;
58553;SDS011;48119;53.218;6.576;2023-06-14T03:40:57;4.32;;;2.17;;
58553;SDS011;48119;53.218;6.576;2023-06-14T03:43:23;4.22;;;2.22;;
58553;SDS011;48119;53.218;6.576;2023-06-14T03:45:49;3.95;;;2.70;;
58553;SDS011;48119;53.218;6.576;2023-06-14T03:48:15;5.47;;;2.35;;
58553;SDS011;48119;53.218;6.576;2023-06-14T03:50:40;8.27;;;2.58;;
58553;SDS011;48119;53.218;6.576;2023-06-14T03:53:08;6.55;;;2.10;;
58553;SDS011;48119;53.218;6.576;2023-06-14T03:55:34;3.53;;;1.65;;
58553;SDS011;48119;53.218;6.576;2023-06-14T03:58:00;4.45;;;2.20;;
58553;SDS011;48119;53.218;6.576;2023-06-14T04:00:25;3.92;;;2.20;;
58553;SDS011;48119;53.218;6.576;2023-06-14T04:02:52;5.07;;;2.15;;
58553;SDS011;48119;53.218;6.576;2023-06-14T04:05:18;2.90;;;1.83;;
58553;SDS011;48119;53.218;6.576;2023-06-14T04:07:44;5.35;;;2.63;;
58553;SDS011;48119;53.218;6.576;2023-06-14T04:10:11;4.85;;;2.22;;
58553;SDS011;48119;53.218;6.576;2023-06-14T04:12:38;7.20;;;2.55;;
58553;SDS011;48119;53.218;6.576;2023-06-14T04:15:04;5.90;;;2.22;;
58553;SDS011;48119;53.218;6.576;2023-06-14T04:17:33;4.28;;;2.25;;
58553;SDS011;48119;53.218;6.576;2023-06-14T04:20:00;8.48;;;2.17;;
58553;SDS011;48119;53.218;6.576;2023-06-14T04:22:26;6.30;;;2.40;;
58553;SDS011;48119;53.218;6.576;2023-06-14T04:24:55;5.40;;;2.08;;
58553;SDS011;48119;53.218;6.576;2023-06-14T04:27:25;6.72;;;2.50;;
58553;SDS011;48119;53.218;6.576;2023-06-14T04:29:52;4.85;;;2.08;;
58553;SDS011;48119;53.218;6.576;2023-06-14T04:32:25;6.75;;;2.75;;
58553;SDS011;48119;53.218;6.576;2023-06-14T04:34:54;3.88;;;2.45;;
58553;SDS011;48119;53.218;6.576;2023-06-14T04:37:22;4.72;;;2.40;;
58553;SDS011;48119;53.218;6.576;2023-06-14T04:39:48;3.30;;;2.33;;
58553;SDS011;48119;53.218;6.576;2023-06-14T04:42:15;5.97;;;2.72;;
58553;SDS011;48119;53.218;6.576;2023-06-14T04:44:42;5.05;;;2.38;;
58553;SDS011;48119;53.218;6.576;2023-06-14T04:47:09;4.70;;;2.60;;
58553;SDS011;48119;53.218;6.576;2023-06-14T04:49:36;6.20;;;2.45;;
58553;SDS011;48119;53.218;6.576;2023-06-14T04:52:02;3.67;;;2.10;;
58553;SDS011;48119;53.218;6.576;2023-06-14T04:54:28;13.35;;;2.88;;
58553;SDS011;48119;53.218;6.576;2023-06-14T04:56:56;6.47;;;2.92;;
58553;SDS011;48119;53.218;6.576;2023-06-14T04:59:22;7.85;;;2.78;;
58553;SDS011;48119;53.218;6.576;2023-06-14T05:01:49;9.00;;;2.88;;
58553;SDS011;48119;53.218;6.576;2023-06-14T05:04:15;6.20;;;2.83;;
58553;SDS011;48119;53.218;6.576;2023-06-14T05:06:44;7.53;;;3.03;;
58553;SDS011;48119;53.218;6.576;2023-06-14T05:09:11;4.13;;;2.33;;
58553;SDS011;48119;53.218;6.576;2023-06-14T05:11:37;10.43;;;3.55;;
58553;SDS011;48119;53.218;6.576;2023-06-14T05:14:03;5.25;;;3.15;;
58553;SDS011;48119;53.218;6.576;2023-06-14T05:16:28;6.15;;;2.78;;
58553;SDS011;48119;53.218;6.576;2023-06-14T05:18:55;5.25;;;2.78;;
58553;SDS011;48119;53.218;6.576;2023-06-14T05:21:21;7.82;;;3.05;;
58553;SDS011;48119;53.218;6.576;2023-06-14T05:23:47;7.35;;;3.17;;
58553;SDS011;48119;53.218;6.576;2023-06-14T05:26:13;5.30;;;3.35;;
58553;SDS011;48119;53.218;6.576;2023-06-14T05:28:38;4.97;;;3.05;;
58553;SDS011;48119;53.218;6.576;2023-06-14T05:31:04;6.68;;;3.40;;
58553;SDS011;48119;53.218;6.576;2023-06-14T05:33:30;7.40;;;3.30;;
58553;SDS011;48119;53.218;6.576;2023-06-14T05:35:56;6.78;;;2.95;;
58553;SDS011;48119;53.218;6.576;2023-06-14T05:38:22;7.30;;;3.75;;
58553;SDS011;48119;53.218;6.576;2023-06-14T05:40:48;9.38;;;3.40;;
58553;SDS011;48119;53.218;6.576;2023-06-14T05:43:13;5.60;;;3.17;;
58553;SDS011;48119;53.218;6.576;2023-06-14T05:45:39;5.63;;;3.40;;
58553;SDS011;48119;53.218;6.576;2023-06-14T05:48:05;8.35;;;3.30;;
58553;SDS011;48119;53.218;6.576;2023-06-14T05:50:31;6.25;;;4.10;;
58553;SDS011;48119;53.218;6.576;2023-06-14T05:52:56;5.53;;;3.55;;
58553;SDS011;48119;53.218;6.576;2023-06-14T05:55:22;7.78;;;3.60;;
58553;SDS011;48119;53.218;6.576;2023-06-14T05:57:48;7.68;;;3.30;;
58553;SDS011;48119;53.218;6.576;2023-06-14T06:00:14;5.20;;;3.55;;
58553;SDS011;48119;53.218;6.576;2023-06-14T06:02:44;7.35;;;3.55;;
58553;SDS011;48119;53.218;6.576;2023-06-14T06:05:11;5.47;;;3.53;;
58553;SDS011;48119;53.218;6.576;2023-06-14T06:07:38;6.78;;;3.17;;
58553;SDS011;48119;53.218;6.576;2023-06-14T06:10:05;7.45;;;3.55;;
58553;SDS011;48119;53.218;6.576;2023-06-14T06:12:31;6.63;;;3.17;;
58553;SDS011;48119;53.218;6.576;2023-06-14T06:14:58;4.97;;;3.17;;
58553;SDS011;48119;53.218;6.576;2023-06-14T06:17:24;7.82;;;3.88;;
58553;SDS011;48119;53.218;6.576;2023-06-14T06:19:51;6.43;;;3.53;;
58553;SDS011;48119;53.218;6.576;2023-06-14T06:22:17;9.43;;;3.78;;
58553;SDS011;48119;53.218;6.576;2023-06-14T06:24:42;8.48;;;2.97;;
58553;SDS011;48119;53.218;6.576;2023-06-14T06:27:08;5.60;;;3.08;;
58553;SDS011;48119;53.218;6.576;2023-06-14T06:29:35;5.72;;;3.20;;
58553;SDS011;48119;53.218;6.576;2023-06-14T06:32:01;7.20;;;3.30;;
58553;SDS011;48119;53.218;6.576;2023-06-14T06:34:27;6.22;;;3.13;;
58553;SDS011;48119;53.218;6.576;2023-06-14T06:36:53;4.15;;;2.90;;
58553;SDS011;48119;53.218;6.576;2023-06-14T06:39:19;10.85;;;3.13;;
58553;SDS011;48119;53.218;6.576;2023-06-14T06:41:44;6.63;;;2.78;;
58553;SDS011;48119;53.218;6.576;2023-06-14T06:44:10;6.80;;;2.75;;
58553;SDS011;48119;53.218;6.576;2023-06-14T06:46:36;5.40;;;3.17;;
58553;SDS011;48119;53.218;6.576;2023-06-14T06:49:06;7.95;;;3.28;;
58553;SDS011;48119;53.218;6.576;2023-06-14T06:51:32;8.77;;;3.13;;
58553;SDS011;48119;53.218;6.576;2023-06-14T06:53:59;4.20;;;2.90;;
58553;SDS011;48119;53.218;6.576;2023-06-14T06:56:25;8.82;;;2.83;;
58553;SDS011;48119;53.218;6.576;2023-06-14T06:58:51;5.90;;;2.85;;
58553;SDS011;48119;53.218;6.576;2023-06-14T07:01:18;5.00;;;2.58;;
58553;SDS011;48119;53.218;6.576;2023-06-14T07:03:44;9.00;;;2.70;;
58553;SDS011;48119;53.218;6.576;2023-06-14T07:06:11;4.50;;;2.47;;
58553;SDS011;48119;53.218;6.576;2023-06-14T07:08:37;5.97;;;2.88;;
58553;SDS011;48119;53.218;6.576;2023-06-14T07:11:06;6.90;;;2.42;;
58553;SDS011;48119;53.218;6.576;2023-06-14T07:13:32;7.70;;;3.25;;
58553;SDS011;48119;53.218;6.576;2023-06-14T07:15:58;3.03;;;2.55;;
58553;SDS011;48119;53.218;6.576;2023-06-14T07:18:28;6.55;;;2.90;;
58553;SDS011;48119;53.218;6.576;2023-06-14T07:20:54;5.65;;;2.67;;
58553;SDS011;48119;53.218;6.576;2023-06-14T07:23:20;4.53;;;2.50;;
58553;SDS011;48119;53.218;6.576;2023-06-14T07:25:46;6.75;;;2.83;;
58553;SDS011;48119;53.218;6.576;2023-06-14T07:28:12;7.10;;;2.35;;
58553;SDS011;48119;53.218;6.576;2023-06-14T07:30:37;5.40;;;2.70;;
58553;SDS011;48119;53.218;6.576;2023-06-14T07:33:03;5.05;;;2.60;;
58553;SDS011;48119;53.218;6.576;2023-06-14T07:35:29;5.85;;;2.60;;
58553;SDS011;48119;53.218;6.576;2023-06-14T07:37:54;4.75;;;2.50;;
58553;SDS011;48119;53.218;6.576;2023-06-14T07:40:20;4.43;;;2.35;;
58553;SDS011;48119;53.218;6.576;2023-06-14T07:42:46;6.88;;;2.38;;
58553;SDS011;48119;53.218;6.576;2023-06-14T07:45:13;2.75;;;2.10;;
58553;SDS011;48119;53.218;6.576;2023-06-14T07:47:39;3.13;;;2.05;;
58553;SDS011;48119;53.218;6.576;2023-06-14T07:50:05;6.63;;;2.47;;
58553;SDS011;48119;53.218;6.576;2023-06-14T07:52:31;4.70;;;2.88;;
58553;SDS011;48119;53.218;6.576;2023-06-14T07:54:57;3.58;;;2.08;;
58553;SDS011;48119;53.218;6.576;2023-06-14T07:57:24;5.15;;;2.55;;
58553;SDS011;48119;53.218;6.576;2023-06-14T07:59:50;4.63;;;1.95;;
58553;SDS011;48119;53.218;6.576;2023-06-14T08:02:18;3.05;;;2.30;;
58553;SDS011;48119;53.218;6.576;2023-06-14T08:04:43;3.63;;;2.28;;
58553;SDS011;48119;53.218;6.576;2023-06-14T08:07:09;4.90;;;2.10;;
58553;SDS011;48119;53.218;6.576;2023-06-14T08:09:35;5.97;;;2.35;;
58553;SDS011;48119;53.218;6.576;2023-06-14T08:12:04;6.28;;;2.30;;
58553;SDS011;48119;53.218;6.576;2023-06-14T08:14:33;4.63;;;2.70;;
58553;SDS011;48119;53.218;6.576;2023-06-14T08:16:59;6.13;;;2.75;;
58553;SDS011;48119;53.218;6.576;2023-06-14T08:19:25;3.53;;;2.53;;
58553;SDS011;48119;53.218;6.576;2023-06-14T08:21:51;3.53;;;2.17;;
58553;SDS011;48119;53.218;6.576;2023-06-14T08:24:20;5.95;;;2.50;;
58553;SDS011;48119;53.218;6.576;2023-06-14T08:26:49;5.45;;;2.50;;
58553;SDS011;48119;53.218;6.576;2023-06-14T08:29:15;6.32;;;2.28;;
58553;SDS011;48119;53.218;6.576;2023-06-14T08:31:41;7.13;;;2.67;;
58553;SDS011;48119;53.218;6.576;2023-06-14T08:34:07;5.15;;;1.90;;
58553;SDS011;48119;53.218;6.576;2023-06-14T08:36:32;5.93;;;2.00;;
58553;SDS011;48119;53.218;6.576;2023-06-14T08:38:59;8.18;;;2.33;;
58553;SDS011;48119;53.218;6.576;2023-06-14T08:41:28;4.53;;;2.10;;
58553;SDS011;48119;53.218;6.576;2023-06-14T08:43:54;6.07;;;2.67;;
58553;SDS011;48119;53.218;6.576;2023-06-14T08:46:20;10.43;;;2.50;;
58553;SDS011;48119;53.218;6.576;2023-06-14T08:48:50;5.65;;;2.10;;
58553;SDS011;48119;53.218;6.576;2023-06-14T08:51:20;5.82;;;2.40;;
58553;SDS011;48119;53.218;6.576;2023-06-14T08:53:56;7.70;;;2.72;;
58553;SDS011;48119;53.218;6.576;2023-06-14T08:56:26;4.73;;;2.60;;
58553;SDS011;48119;53.218;6.576;2023-06-14T08:58:59;8.10;;;2.42;;
58553;SDS011;48119;53.218;6.576;2023-06-14T09:01:34;2.55;;;1.77;;
58553;SDS011;48119;53.218;6.576;2023-06-14T09:04:01;5.43;;;2.22;;
58553;SDS011;48119;53.218;6.576;2023-06-14T09:06:30;4.13;;;2.38;;
58553;SDS011;48119;53.218;6.576;2023-06-14T09:08:59;8.98;;;2.53;;
58553;SDS011;48119;53.218;6.576;2023-06-14T09:11:26;5.82;;;2.53;;
58553;SDS011;48119;53.218;6.576;2023-06-14T09:13:52;8.30;;;2.38;;
58553;SDS011;48119;53.218;6.576;2023-06-14T09:16:18;5.38;;;2.53;;
58553;SDS011;48119;53.218;6.576;2023-06-14T09:18:44;4.43;;;2.40;;
58553;SDS011;48119;53.218;6.576;2023-06-14T09:21:15;4.13;;;2.10;;
58553;SDS011;48119;53.218;6.576;2023-06-14T09:23:46;5.47;;;2.40;;
58553;SDS011;48119;53.218;6.576;2023-06-14T09:26:19;3.92;;;2.63;;
58553;SDS011;48119;53.218;6.576;2023-06-14T09:28:45;7.93;;;2.75;;
58553;SDS011;48119;53.218;6.576;2023-06-14T09:31:13;3.65;;;1.70;;
58553;SDS011;48119;53.218;6.576;2023-06-14T09:33:44;6.68;;;2.35;;
58553;SDS011;48119;53.218;6.576;2023-06-14T09:36:17;4.95;;;2.50;;
58553;SDS011;48119;53.218;6.576;2023-06-14T09:38:57;5.18;;;2.47;;
58553;SDS011;48119;53.218;6.576;2023-06-14T09:43:58;9.70;;;2.70;;
58553;SDS011;48119;53.218;6.576;2023-06-14T09:46:28;6.20;;;2.10;;
58553;SDS011;48119;53.218;6.576;2023-06-14T09:48:55;6.85;;;2.47;;
58553;SDS011;48119;53.218;6.576;2023-06-14T09:51:25;5.90;;;2.63;;
58553;SDS011;48119;53.218;6.576;2023-06-14T09:53:52;8.18;;;2.50;;
58553;SDS011;48119;53.218;6.576;2023-06-14T09:56:26;6.95;;;1.98;;
58553;SDS011;48119;53.218;6.576;2023-06-14T09:58:57;4.85;;;2.35;;
58553;SDS011;48119;53.218;6.576;2023-06-14T10:01:24;5.72;;;2.50;;
58553;SDS011;48119;53.218;6.576;2023-06-14T10:03:54;8.13;;;2.47;;
58553;SDS011;48119;53.218;6.576;2023-06-14T10:06:27;4.00;;;2.20;;
58553;SDS011;48119;53.218;6.576;2023-06-14T10:08:56;5.57;;;2.60;;
58553;SDS011;48119;53.218;6.576;2023-06-14T10:11:25;3.65;;;1.92;;
58553;SDS011;48119;53.218;6.576;2023-06-14T10:13:53;4.53;;;2.10;;
58553;SDS011;48119;53.218;6.576;2023-06-14T10:16:28;6.53;;;1.95;;
58553;SDS011;48119;53.218;6.576;2023-06-14T10:18:59;3.80;;;2.20;;
58553;SDS011;48119;53.218;6.576;2023-06-14T10:24:15;3.92;;;2.13;;
58553;SDS011;48119;53.218;6.576;2023-06-14T10:26:51;7.28;;;2.42;;
58553;SDS011;48119;53.218;6.576;2023-06-14T10:29:19;5.17;;;1.90;;
58553;SDS011;48119;53.218;6.576;2023-06-14T10:31:46;4.25;;;2.03;;
58553;SDS011;48119;53.218;6.576;2023-06-14T10:34:26;4.30;;;2.15;;
58553;SDS011;48119;53.218;6.576;2023-06-14T10:37:03;4.35;;;2.15;;
58553;SDS011;48119;53.218;6.576;2023-06-14T10:39:38;7.80;;;3.08;;
58553;SDS011;48119;53.218;6.576;2023-06-14T10:42:05;3.67;;;1.92;;
58553;SDS011;48119;53.218;6.576;2023-06-14T10:44:42;5.88;;;2.13;;
58553;SDS011;48119;53.218;6.576;2023-06-14T10:50:06;6.90;;;2.35;;
58553;SDS011;48119;53.218;6.576;2023-06-14T10:52:38;5.55;;;1.92;;
58553;SDS011;48119;53.218;6.576;2023-06-14T10:55:13;4.75;;;2.08;;
58553;SDS011;48119;53.218;6.576;2023-06-14T11:00:16;5.50;;;1.83;;
58553;SDS011;48119;53.218;6.576;2023-06-14T11:05:16;3.42;;;1.90;;
58553;SDS011;48119;53.218;6.576;2023-06-14T11:10:45;5.45;;;2.17;;
58553;SDS011;48119;53.218;6.576;2023-06-14T11:13:12;4.38;;;2.22;;
58553;SDS011;48119;53.218;6.576;2023-06-14T11:15:43;4.55;;;2.25;;
58553;SDS011;48119;53.218;6.576;2023-06-14T11:18:11;8.32;;;1.90;;
58553;SDS011;48119;53.218;6.576;2023-06-14T11:20:39;4.60;;;1.80;;
58553;SDS011;48119;53.218;6.576;2023-06-14T11:23:05;4.32;;;1.80;;
58553;SDS011;48119;53.218;6.576;2023-06-14T11:25:32;3.67;;;1.88;;
58553;SDS011;48119;53.218;6.576;2023-06-14T11:27:58;4.55;;;1.90;;
58553;SDS011;48119;53.218;6.576;2023-06-14T11:30:25;6.07;;;1.95;;
58553;SDS011;48119;53.218;6.576;2023-06-14T11:32:52;3.95;;;1.70;;
58553;SDS011;48119;53.218;6.576;2023-06-14T11:35:19;5.78;;;1.45;;
58553;SDS011;48119;53.218;6.576;2023-06-14T11:38:01;9.18;;;1.75;;
58553;SDS011;48119;53.218;6.576;2023-06-14T11:40:27;5.95;;;3.28;;
58553;SDS011;48119;53.218;6.576;2023-06-14T11:43:00;4.18;;;2.50;;
58553;SDS011;48119;53.218;6.576;2023-06-14T11:45:27;5.40;;;1.90;;
58553;SDS011;48119;53.218;6.576;2023-06-14T11:47:54;6.18;;;2.30;;
58553;SDS011;48119;53.218;6.576;2023-06-14T11:50:21;4.90;;;2.15;;
58553;SDS011;48119;53.218;6.576;2023-06-14T11:52:54;4.47;;;2.20;;
58553;SDS011;48119;53.218;6.576;2023-06-14T11:55:22;6.35;;;2.65;;
58553;SDS011;48119;53.218;6.576;2023-06-14T11:57:48;7.30;;;3.63;;
58553;SDS011;48119;53.218;6.576;2023-06-14T12:00:17;4.65;;;2.10;;
58553;SDS011;48119;53.218;6.576;2023-06-14T12:02:52;5.35;;;2.22;;
58553;SDS011;48119;53.218;6.576;2023-06-14T12:05:22;5.38;;;2.25;;
58553;SDS011;48119;53.218;6.576;2023-06-14T12:07:48;6.78;;;2.50;;
58553;SDS011;48119;53.218;6.576;2023-06-14T12:10:15;4.20;;;2.58;;
58553;SDS011;48119;53.218;6.576;2023-06-14T12:12:41;4.18;;;2.13;;
58553;SDS011;48119;53.218;6.576;2023-06-14T12:15:08;6.50;;;1.70;;
58553;SDS011;48119;53.218;6.576;2023-06-14T12:17:36;4.15;;;1.77;;
58553;SDS011;48119;53.218;6.576;2023-06-14T12:20:11;4.45;;;1.95;;
58553;SDS011;48119;53.218;6.576;2023-06-14T12:22:53;3.95;;;1.63;;
58553;SDS011;48119;53.218;6.576;2023-06-14T12:25:34;5.10;;;1.73;;
58553;SDS011;48119;53.218;6.576;2023-06-14T12:28:08;2.58;;;1.90;;
58553;SDS011;48119;53.218;6.576;2023-06-14T12:30:38;3.47;;;1.77;;
58553;SDS011;48119;53.218;6.576;2023-06-14T12:33:04;3.78;;;1.75;;
58553;SDS011;48119;53.218;6.576;2023-06-14T12:35:31;2.92;;;1.50;;
58553;SDS011;48119;53.218;6.576;2023-06-14T12:37:57;5.72;;;2.40;;
58553;SDS011;48119;53.218;6.576;2023-06-14T12:40:23;5.30;;;1.95;;
58553;SDS011;48119;53.218;6.576;2023-06-14T12:42:49;3.20;;;1.80;;
58553;SDS011;48119;53.218;6.576;2023-06-14T12:45:15;4.78;;;1.70;;
58553;SDS011;48119;53.218;6.576;2023-06-14T12:47:41;7.68;;;1.75;;
58553;SDS011;48119;53.218;6.576;2023-06-14T12:50:07;3.15;;;1.50;;
58553;SDS011;48119;53.218;6.576;2023-06-14T12:52:33;4.18;;;1.88;;
58553;SDS011;48119;53.218;6.576;2023-06-14T12:55:03;2.10;;;1.50;;
58553;SDS011;48119;53.218;6.576;2023-06-14T12:57:40;7.10;;;2.63;;
58553;SDS011;48119;53.218;6.576;2023-06-14T13:00:15;6.25;;;1.55;;
58553;SDS011;48119;53.218;6.576;2023-06-14T13:02:42;3.38;;;1.67;;
58553;SDS011;48119;53.218;6.576;2023-06-14T13:05:09;3.47;;;1.50;;
58553;SDS011;48119;53.218;6.576;2023-06-14T13:07:35;3.53;;;1.95;;
58553;SDS011;48119;53.218;6.576;2023-06-14T13:10:01;2.85;;;1.55;;
58553;SDS011;48119;53.218;6.576;2023-06-14T13:12:27;2.50;;;1.83;;
58553;SDS011;48119;53.218;6.576;2023-06-14T13:14:56;3.00;;;1.63;;
58553;SDS011;48119;53.218;6.576;2023-06-14T13:17:22;2.45;;;1.73;;
58553;SDS011;48119;53.218;6.576;2023-06-14T13:19:48;4.38;;;1.70;;
58553;SDS011;48119;53.218;6.576;2023-06-14T13:22:14;3.38;;;1.52;;
58553;SDS011;48119;53.218;6.576;2023-06-14T13:24:40;7.40;;;1.98;;
58553;SDS011;48119;53.218;6.576;2023-06-14T13:27:07;3.58;;;1.63;;
58553;SDS011;48119;53.218;6.576;2023-06-14T13:29:36;5.13;;;2.00;;
58553;SDS011;48119;53.218;6.576;2023-06-14T13:32:02;4.35;;;2.10;;
58553;SDS011;48119;53.218;6.576;2023-06-14T13:34:29;4.78;;;1.70;;
58553;SDS011;48119;53.218;6.576;2023-06-14T13:36:55;2.58;;;1.38;;
58553;SDS011;48119;53.218;6.576;2023-06-14T13:39:21;3.30;;;1.50;;
58553;SDS011;48119;53.218;6.576;2023-06-14T13:41:47;5.57;;;2.00;;
58553;SDS011;48119;53.218;6.576;2023-06-14T13:44:13;4.30;;;1.73;;
58553;SDS011;48119;53.218;6.576;2023-06-14T13:46:41;2.83;;;1.55;;
58553;SDS011;48119;53.218;6.576;2023-06-14T13:49:08;5.18;;;1.67;;
58553;SDS011;48119;53.218;6.576;2023-06-14T13:51:34;4.05;;;1.55;;
58553;SDS011;48119;53.218;6.576;2023-06-14T13:54:00;6.47;;;2.15;;
58553;SDS011;48119;53.218;6.576;2023-06-14T13:56:29;3.25;;;2.20;;
58553;SDS011;48119;53.218;6.576;2023-06-14T13:58:55;4.53;;;1.70;;
58553;SDS011;48119;53.218;6.576;2023-06-14T14:01:21;4.43;;;2.13;;
58553;SDS011;48119;53.218;6.576;2023-06-14T14:03:48;7.43;;;2.20;;
58553;SDS011;48119;53.218;6.576;2023-06-14T14:06:17;3.80;;;2.25;;
58553;SDS011;48119;53.218;6.576;2023-06-14T14:08:43;3.53;;;1.70;;
58553;SDS011;48119;53.218;6.576;2023-06-14T14:11:09;3.58;;;1.83;;
58553;SDS011;48119;53.218;6.576;2023-06-14T14:13:35;10.07;;;4.88;;
58553;SDS011;48119;53.218;6.576;2023-06-14T14:16:02;2.97;;;2.00;;
58553;SDS011;48119;53.218;6.576;2023-06-14T14:18:30;3.90;;;1.90;;
58553;SDS011;48119;53.218;6.576;2023-06-14T14:20:57;3.50;;;2.15;;
58553;SDS011;48119;53.218;6.576;2023-06-14T14:23:23;2.30;;;1.42;;
58553;SDS011;48119;53.218;6.576;2023-06-14T14:25:50;4.05;;;2.50;;
58553;SDS011;48119;53.218;6.576;2023-06-14T14:28:16;5.05;;;1.90;;
58553;SDS011;48119;53.218;6.576;2023-06-14T14:30:44;7.07;;;2.40;;
58553;SDS011;48119;53.218;6.576;2023-06-14T14:33:12;11.10;;;4.03;;
58553;SDS011;48119;53.218;6.576;2023-06-14T14:35:48;13.60;;;3.65;;
58553;SDS011;48119;53.218;6.576;2023-06-14T14:38:14;8.43;;;2.53;;
58553;SDS011;48119;53.218;6.576;2023-06-14T14:40:41;7.05;;;3.53;;
58553;SDS011;48119;53.218;6.576;2023-06-14T14:43:26;8.20;;;2.60;;
58553;SDS011;48119;53.218;6.576;2023-06-14T14:45:55;5.28;;;2.42;;
58553;SDS011;48119;53.218;6.576;2023-06-14T14:48:22;3.92;;;2.33;;
58553;SDS011;48119;53.218;6.576;2023-06-14T14:50:47;3.35;;;2.22;;
58553;SDS011;48119;53.218;6.576;2023-06-14T14:53:13;3.58;;;1.95;;
58553;SDS011;48119;53.218;6.576;2023-06-14T14:55:45;5.22;;;2.30;;
58553;SDS011;48119;53.218;6.576;2023-06-14T14:58:17;3.40;;;1.92;;
58553;SDS011;48119;53.218;6.576;2023-06-14T15:00:46;3.88;;;1.92;;
58553;SDS011;48119;53.218;6.576;2023-06-14T15:03:15;7.20;;;2.50;;
58553;SDS011;48119;53.218;6.576;2023-06-14T15:05:41;3.85;;;2.17;;
58553;SDS011;48119;53.218;6.576;2023-06-14T15:08:15;6.47;;;2.33;;
58553;SDS011;48119;53.218;6.576;2023-06-14T15:10:44;2.95;;;1.90;;
58553;SDS011;48119;53.218;6.576;2023-06-14T15:13:14;3.15;;;1.80;;
58553;SDS011;48119;53.218;6.576;2023-06-14T15:15:40;3.65;;;2.22;;